Terminal Aerodrome Forecast
Issued by NWS

Home | Current Version | Previous Version | Text Only | Print | Product List | Glossary On
Versions: 1 2 3 4 5 6 7 8 9 10 11 12 13
000
FTUS46 KLOX 221900 AAA
TAFPRB
TAF AMD
KPRB 221959Z 2220/2318 20015G25KT P6SM SKC
     FM230200 19010KT P6SM SKC
     FM230700 VRB03KT P6SM SKC
     FM231400 VRB03KT 6SM BR OVC015
     FM231700 VRB05KT P6SM SKC=

USA.gov is the U.S. government's official web portal to all federal, state and local government web resources and services.